createdAt,value
2018-10-19T00:00:33.223Z,0.00
2018-10-19T00:01:33.212Z,0.00
2018-10-19T00:02:33.204Z,0.00
2018-10-19T00:03:33.206Z,0.00
2018-10-19T00:04:33.178Z,0.00
2018-10-19T00:05:33.166Z,0.00
2018-10-19T00:06:33.161Z,0.00
2018-10-19T00:07:33.153Z,0.00
2018-10-19T00:08:33.133Z,0.00
2018-10-19T00:09:33.136Z,0.00
2018-10-19T00:10:33.113Z,0.00
2018-10-19T00:11:33.100Z,0.00
2018-10-19T00:12:33.112Z,0.00
2018-10-19T00:13:33.078Z,0.00
2018-10-19T00:14:33.068Z,0.00
2018-10-19T00:15:33.066Z,0.00
2018-10-19T00:16:33.044Z,0.00
2018-10-19T00:17:33.033Z,0.00
2018-10-19T00:18:33.027Z,0.00
2018-10-19T00:19:33.013Z,0.00
2018-10-19T00:20:33.002Z,0.00
2018-10-19T00:21:33.002Z,0.00
2018-10-19T00:22:40.011Z,0.00
2018-10-19T00:23:32.970Z,0.00
2018-10-19T00:24:32.966Z,0.00
2018-10-19T00:25:32.945Z,0.00
2018-10-19T00:26:32.932Z,0.00
2018-10-19T00:27:32.933Z,0.00
2018-10-19T00:28:32.924Z,0.00
2018-10-19T00:29:32.898Z,0.00
2018-10-19T00:30:32.888Z,0.00
2018-10-19T00:31:32.878Z,0.00
2018-10-19T00:32:32.877Z,0.00
2018-10-19T00:33:32.872Z,0.00
2018-10-19T00:34:32.862Z,0.00
2018-10-19T00:35:32.840Z,0.00
2018-10-19T00:36:32.841Z,0.00
2018-10-19T00:37:32.812Z,0.00
2018-10-19T00:38:32.799Z,0.00
2018-10-19T00:39:32.800Z,0.00
2018-10-19T00:40:32.778Z,0.00
2018-10-19T00:41:32.778Z,0.00
2018-10-19T00:42:32.755Z,0.00
2018-10-19T00:43:32.781Z,0.00
2018-10-19T00:44:40.136Z,0.00
2018-10-19T00:45:32.725Z,0.00
2018-10-19T00:46:32.715Z,0.00
2018-10-19T00:47:32.702Z,0.00
2018-10-19T00:48:32.700Z,0.00
2018-10-19T00:49:32.681Z,0.00
2018-10-19T00:50:32.681Z,0.00
2018-10-19T00:51:32.667Z,0.00
2018-10-19T00:52:32.657Z,0.00
2018-10-19T00:53:32.652Z,0.00
2018-10-19T00:54:32.627Z,0.00
2018-10-19T00:55:32.621Z,0.00
2018-10-19T00:56:32.616Z,0.00
2018-10-19T00:57:32.593Z,0.00
2018-10-19T00:58:32.578Z,0.00
2018-10-19T00:59:32.580Z,0.00
2018-10-19T01:00:32.563Z,0.00
2018-10-19T01:01:32.560Z,0.00
2018-10-19T01:02:32.539Z,0.00
2018-10-19T01:03:32.568Z,0.00
2018-10-19T01:04:32.520Z,0.00
2018-10-19T01:05:32.539Z,0.00
2018-10-19T01:06:32.487Z,0.00
2018-10-19T01:07:32.490Z,0.00
2018-10-19T01:08:32.469Z,0.00
2018-10-19T01:09:32.461Z,0.00
2018-10-19T01:10:32.452Z,0.00
2018-10-19T01:11:32.437Z,0.00
2018-10-19T01:12:32.430Z,0.00
2018-10-19T01:13:32.409Z,0.00
2018-10-19T01:14:32.408Z,0.00
2018-10-19T01:15:32.399Z,0.00
2018-10-19T01:16:32.400Z,0.00
2018-10-19T01:17:32.368Z,0.00
2018-10-19T01:18:32.362Z,0.00
2018-10-19T01:19:32.346Z,0.00
2018-10-19T01:20:32.341Z,0.00
2018-10-19T01:21:32.333Z,0.00
2018-10-19T01:22:32.321Z,0.00
2018-10-19T01:23:32.306Z,0.00
2018-10-19T01:24:32.285Z,0.00
2018-10-19T01:25:32.279Z,0.00
2018-10-19T01:26:39.308Z,0.00
2018-10-19T01:27:32.288Z,0.00
2018-10-19T01:28:32.249Z,0.00
2018-10-19T01:29:32.235Z,0.00
2018-10-19T01:30:32.242Z,0.00
2018-10-19T01:31:32.225Z,0.00
2018-10-19T01:32:32.196Z,0.00
2018-10-19T01:33:32.190Z,0.00
2018-10-19T01:34:32.182Z,0.00
2018-10-19T01:35:32.163Z,0.00
2018-10-19T01:36:32.152Z,0.00
2018-10-19T01:37:32.143Z,0.00
2018-10-19T01:38:32.134Z,0.00
2018-10-19T01:39:32.124Z,0.00
2018-10-19T01:40:32.125Z,0.00
2018-10-19T01:41:32.097Z,0.00
2018-10-19T01:42:32.084Z,0.00
2018-10-19T01:43:32.087Z,0.00
2018-10-19T01:44:32.068Z,0.00
2018-10-19T01:45:32.051Z,0.00
2018-10-19T01:46:32.051Z,0.00
2018-10-19T01:47:32.046Z,0.00
2018-10-19T01:48:32.018Z,0.00
2018-10-19T01:49:32.013Z,0.00
2018-10-19T01:50:31.995Z,0.00
2018-10-19T01:51:31.987Z,0.00
2018-10-19T01:52:31.973Z,0.00
2018-10-19T01:53:31.975Z,0.00
2018-10-19T01:54:31.957Z,0.00
2018-10-19T01:55:31.939Z,0.00
2018-10-19T01:56:31.929Z,0.00
2018-10-19T01:57:31.922Z,0.00
2018-10-19T01:58:31.908Z,0.00
2018-10-19T01:59:31.924Z,0.00
2018-10-19T02:00:31.895Z,0.00
2018-10-19T02:01:31.875Z,0.00
2018-10-19T02:02:31.862Z,0.00
2018-10-19T02:03:31.853Z,0.00
2018-10-19T02:04:31.844Z,0.00
2018-10-19T02:05:31.833Z,0.00
2018-10-19T02:06:31.823Z,0.00
2018-10-19T02:07:31.821Z,0.00
2018-10-19T02:08:31.804Z,0.00
2018-10-19T02:09:31.784Z,0.00
2018-10-19T02:10:31.776Z,0.00
2018-10-19T02:11:31.764Z,0.00
2018-10-19T02:12:31.753Z,0.00
2018-10-19T02:13:31.741Z,0.00
2018-10-19T02:14:31.732Z,0.00
2018-10-19T02:15:31.752Z,0.00
2018-10-19T02:16:31.707Z,0.00
2018-10-19T02:17:31.697Z,0.00
2018-10-19T02:18:31.685Z,0.00
2018-10-19T02:19:31.679Z,0.00
2018-10-19T02:20:31.662Z,0.00
2018-10-19T02:21:31.673Z,0.00
2018-10-19T02:22:31.641Z,0.00
2018-10-19T02:23:31.630Z,0.00
2018-10-19T02:24:31.622Z,0.00
2018-10-19T02:25:31.609Z,0.00
2018-10-19T02:26:31.603Z,0.00
2018-10-19T02:27:31.593Z,0.00
2018-10-19T02:28:31.581Z,0.00
2018-10-19T02:29:31.567Z,0.00
2018-10-19T02:30:31.553Z,0.00
2018-10-19T02:31:31.558Z,0.00
2018-10-19T02:32:31.531Z,0.00
2018-10-19T02:33:31.519Z,0.00
2018-10-19T02:34:31.513Z,0.00
2018-10-19T02:35:31.529Z,0.00
2018-10-19T02:36:31.487Z,0.00
2018-10-19T02:37:31.478Z,0.00
2018-10-19T02:38:31.463Z,0.00
2018-10-19T02:39:31.452Z,0.00
2018-10-19T02:40:31.441Z,0.00
2018-10-19T02:41:31.450Z,0.00
2018-10-19T02:42:31.428Z,0.00
2018-10-19T02:43:31.410Z,0.00
2018-10-19T02:44:31.398Z,0.00
2018-10-19T02:45:31.385Z,0.00
2018-10-19T02:46:31.374Z,0.00
2018-10-19T02:47:31.392Z,0.00
2018-10-19T02:48:31.365Z,0.00
2018-10-19T02:49:31.343Z,0.00
2018-10-19T02:50:31.329Z,0.00
2018-10-19T02:51:31.324Z,0.00
2018-10-19T02:52:31.309Z,0.00
2018-10-19T02:53:31.311Z,0.00
2018-10-19T02:54:31.287Z,0.00
2018-10-19T02:55:31.278Z,0.00
2018-10-19T02:56:31.262Z,0.00
2018-10-19T02:57:31.253Z,0.00
2018-10-19T02:58:31.244Z,0.00
2018-10-19T02:59:31.233Z,0.00
2018-10-19T03:00:31.218Z,0.00
2018-10-19T03:01:31.208Z,0.00
2018-10-19T03:02:31.199Z,0.00
2018-10-19T03:03:31.233Z,12.00
2018-10-19T03:04:31.173Z,8.00
2018-10-19T03:05:31.163Z,12.00
2018-10-19T03:06:31.166Z,12.00
2018-10-19T03:07:31.140Z,12.00
2018-10-19T03:08:31.132Z,12.00
2018-10-19T03:09:31.126Z,12.00
2018-10-19T03:10:31.107Z,12.00
2018-10-19T03:11:31.178Z,12.00
2018-10-19T03:12:31.090Z,0.00
2018-10-19T03:13:31.074Z,0.00
2018-10-19T03:14:31.088Z,0.00
2018-10-19T03:15:31.058Z,0.00
2018-10-19T03:16:31.040Z,0.00
2018-10-19T03:17:31.062Z,0.00
2018-10-19T03:18:31.021Z,0.00
2018-10-19T03:19:31.024Z,0.00
2018-10-19T03:20:30.996Z,0.00
2018-10-19T03:21:30.986Z,0.00
2018-10-19T03:22:30.977Z,0.00
2018-10-19T03:23:31.011Z,0.00
2018-10-19T03:24:30.951Z,0.00
2018-10-19T03:25:30.947Z,0.00
2018-10-19T03:26:30.936Z,0.00
2018-10-19T03:27:30.924Z,0.00
2018-10-19T03:28:30.910Z,0.00
2018-10-19T03:29:30.926Z,0.00
2018-10-19T03:30:30.887Z,0.00
2018-10-19T03:31:30.873Z,0.00
2018-10-19T03:32:30.861Z,0.00
2018-10-19T03:33:30.849Z,0.00
2018-10-19T03:34:30.839Z,0.00
2018-10-19T03:35:30.885Z,0.00
2018-10-19T03:36:30.817Z,0.00
2018-10-19T03:37:30.809Z,0.00
2018-10-19T03:38:30.798Z,0.00
2018-10-19T03:39:30.830Z,0.00
2018-10-19T03:40:30.793Z,0.00
2018-10-19T03:41:30.800Z,0.00
2018-10-19T03:42:30.752Z,0.00
2018-10-19T03:43:30.739Z,0.00
2018-10-19T03:44:30.729Z,0.00
2018-10-19T03:45:30.725Z,0.00
2018-10-19T03:46:30.710Z,0.00
2018-10-19T03:47:30.716Z,0.00
2018-10-19T03:48:30.684Z,0.00
2018-10-19T03:49:30.674Z,0.00
2018-10-19T03:50:30.662Z,0.00
2018-10-19T03:51:30.654Z,0.00
2018-10-19T03:52:30.640Z,0.00
2018-10-19T03:53:30.664Z,0.00
2018-10-19T03:54:30.618Z,12.00
2018-10-19T03:55:30.605Z,8.00
2018-10-19T03:56:30.614Z,12.00
2018-10-19T03:57:30.584Z,12.00
2018-10-19T03:58:30.575Z,12.00
2018-10-19T03:59:30.578Z,8.00
2018-10-19T04:00:30.552Z,8.00
2018-10-19T04:01:30.540Z,8.00
2018-10-19T04:02:30.538Z,0.00
2018-10-19T04:03:30.574Z,0.00
2018-10-19T04:04:30.507Z,0.00
2018-10-19T04:05:30.531Z,0.00
2018-10-19T04:06:30.487Z,0.00
2018-10-19T04:07:30.479Z,0.00
2018-10-19T04:08:30.463Z,0.00
2018-10-19T04:09:30.454Z,0.00
2018-10-19T04:10:30.440Z,0.00
2018-10-19T04:11:30.480Z,0.00
2018-10-19T04:12:30.448Z,0.00
2018-10-19T04:13:30.445Z,0.00
2018-10-19T04:14:30.395Z,0.00
2018-10-19T04:15:30.385Z,0.00
2018-10-19T04:16:30.381Z,0.00
2018-10-19T04:17:30.375Z,0.00
2018-10-19T04:18:30.356Z,0.00
2018-10-19T04:19:30.344Z,0.00
2018-10-19T04:20:30.328Z,0.00
2018-10-19T04:21:30.318Z,0.00
2018-10-19T04:22:30.310Z,0.00
2018-10-19T04:23:30.319Z,0.00
2018-10-19T04:24:30.288Z,0.00
2018-10-19T04:25:30.276Z,0.00
2018-10-19T04:26:30.266Z,0.00
2018-10-19T04:27:30.363Z,0.00
2018-10-19T04:28:30.258Z,0.00
2018-10-19T04:29:30.243Z,0.00
2018-10-19T04:30:30.218Z,0.00
2018-10-19T04:31:30.207Z,0.00
2018-10-19T04:32:30.213Z,0.00
2018-10-19T04:33:30.200Z,0.00
2018-10-19T04:34:30.182Z,0.00
2018-10-19T04:35:30.207Z,0.00
2018-10-19T04:36:30.154Z,0.00
2018-10-19T04:37:30.142Z,0.00
2018-10-19T04:38:30.134Z,0.00
2018-10-19T04:39:30.126Z,0.00
2018-10-19T04:40:30.107Z,0.00
2018-10-19T04:41:30.173Z,0.00
2018-10-19T04:42:30.085Z,0.00
2018-10-19T04:43:30.075Z,0.00
2018-10-19T04:44:30.071Z,0.00
2018-10-19T04:45:30.052Z,0.00
2018-10-19T04:46:30.043Z,0.00
2018-10-19T04:47:30.101Z,0.00
2018-10-19T04:48:30.032Z,0.00
2018-10-19T04:49:30.026Z,0.00
2018-10-19T04:50:29.999Z,0.00
2018-10-19T04:51:29.987Z,0.00
2018-10-19T04:52:29.981Z,0.00
2018-10-19T04:53:30.015Z,0.00
2018-10-19T04:54:29.960Z,0.00
2018-10-19T04:55:29.948Z,0.00
2018-10-19T04:56:29.936Z,0.00
2018-10-19T04:57:29.921Z,0.00
2018-10-19T04:58:29.908Z,0.00
2018-10-19T04:59:29.932Z,0.00
2018-10-19T05:00:29.890Z,0.00
2018-10-19T05:01:29.874Z,0.00
2018-10-19T05:02:29.917Z,0.00
2018-10-19T05:03:29.852Z,0.00
2018-10-19T05:04:29.862Z,0.00
2018-10-19T05:05:29.932Z,0.00
2018-10-19T05:06:29.866Z,0.00
2018-10-19T05:07:29.837Z,0.00
2018-10-19T05:08:29.841Z,0.00
2018-10-19T05:09:29.819Z,0.00
2018-10-19T05:10:29.795Z,0.00
2018-10-19T05:11:29.778Z,0.00
2018-10-19T05:12:29.851Z,0.00
2018-10-19T05:13:30.689Z,0.00
2018-10-19T05:14:29.772Z,0.00
2018-10-19T05:15:29.720Z,0.00
2018-10-19T05:16:29.753Z,0.00
2018-10-19T05:17:29.720Z,0.00
2018-10-19T05:18:29.715Z,0.00
2018-10-19T05:19:29.695Z,0.00
2018-10-19T05:20:29.726Z,4.00
2018-10-19T05:21:29.691Z,4.00
2018-10-19T05:22:29.642Z,0.00
2018-10-19T05:23:29.633Z,4.00
2018-10-19T05:24:29.671Z,4.00
2018-10-19T05:25:29.611Z,4.00
2018-10-19T05:26:29.597Z,4.00
2018-10-19T05:27:29.597Z,4.00
2018-10-19T05:28:29.574Z,8.00
2018-10-19T05:29:29.568Z,8.00
2018-10-19T05:30:29.551Z,8.00
2018-10-19T05:31:29.541Z,20.00
2018-10-19T05:32:29.545Z,20.00
2018-10-19T05:33:29.521Z,24.00
2018-10-19T05:34:29.508Z,24.00
2018-10-19T05:35:29.496Z,28.00
2018-10-19T05:36:29.486Z,20.00
2018-10-19T05:37:29.504Z,20.00
2018-10-19T05:38:37.040Z,20.00
2018-10-19T05:39:29.455Z,20.00
2018-10-19T05:40:29.443Z,24.00
2018-10-19T05:41:29.431Z,28.00
2018-10-19T05:42:29.422Z,28.00
2018-10-19T05:43:29.492Z,32.00
2018-10-19T05:44:29.406Z,32.00
2018-10-19T05:45:29.393Z,36.00
2018-10-19T05:46:29.383Z,40.00
2018-10-19T05:47:29.371Z,40.00
2018-10-19T05:48:29.373Z,40.00
2018-10-19T05:49:29.348Z,44.00
2018-10-19T05:50:29.337Z,48.00
2018-10-19T05:51:29.321Z,48.00
2018-10-19T05:52:29.324Z,52.00
2018-10-19T05:53:29.339Z,56.00
2018-10-19T05:54:29.294Z,56.00
2018-10-19T05:55:29.275Z,64.00
2018-10-19T05:56:29.281Z,68.00
2018-10-19T05:57:29.260Z,68.00
2018-10-19T05:58:29.251Z,72.00
2018-10-19T05:59:29.243Z,80.00
2018-10-19T06:00:29.240Z,80.00
2018-10-19T06:01:29.247Z,84.00
2018-10-19T06:02:29.398Z,88.00
2018-10-19T06:03:29.227Z,92.00
2018-10-19T06:04:29.211Z,96.00
2018-10-19T06:05:29.176Z,104.00
2018-10-19T06:06:29.161Z,108.00
2018-10-19T06:07:29.158Z,112.00
2018-10-19T06:08:29.144Z,116.00
2018-10-19T06:09:29.138Z,120.00
2018-10-19T06:10:29.110Z,120.00
2018-10-19T06:11:29.103Z,124.00
2018-10-19T06:12:29.095Z,124.00
2018-10-19T06:13:29.118Z,132.00
2018-10-19T06:14:29.087Z,136.00
2018-10-19T06:15:29.063Z,140.00
2018-10-19T06:16:29.067Z,148.00
2018-10-19T06:17:29.050Z,160.00
2018-10-19T06:18:29.034Z,172.00
2018-10-19T06:19:29.013Z,172.00
2018-10-19T06:20:29.012Z,180.00
2018-10-19T06:21:28.997Z,188.00
2018-10-19T06:22:28.978Z,196.00
2018-10-19T06:23:28.970Z,200.00
2018-10-19T06:24:28.980Z,204.00
2018-10-19T06:25:28.942Z,204.00
2018-10-19T06:26:28.993Z,212.00
2018-10-19T06:27:28.921Z,216.00
2018-10-19T06:28:28.918Z,204.00
2018-10-19T06:29:28.909Z,220.00
2018-10-19T06:30:28.888Z,224.00
2018-10-19T06:31:28.875Z,232.00
2018-10-19T06:32:28.874Z,236.00
2018-10-19T06:33:28.891Z,244.00
2018-10-19T06:34:28.851Z,236.00
2018-10-19T06:35:28.836Z,240.00
2018-10-19T06:36:28.818Z,244.00
2018-10-19T06:37:28.816Z,252.00
2018-10-19T06:38:28.808Z,256.00
2018-10-19T06:39:28.803Z,264.00
2018-10-19T06:40:28.779Z,272.00
2018-10-19T06:41:28.768Z,284.00
2018-10-19T06:42:28.754Z,296.00
2018-10-19T06:43:28.756Z,304.00
2018-10-19T06:44:28.736Z,308.00
2018-10-19T06:45:28.736Z,316.00
2018-10-19T06:46:28.727Z,320.00
2018-10-19T06:47:28.733Z,328.00
2018-10-19T06:48:28.688Z,320.00
2018-10-19T06:49:28.697Z,328.00
2018-10-19T06:50:28.678Z,336.00
2018-10-19T06:51:28.651Z,340.00
2018-10-19T06:52:28.643Z,344.00
2018-10-19T06:53:28.634Z,348.00
2018-10-19T06:54:37.189Z,352.00
2018-10-19T06:55:35.655Z,360.00
2018-10-19T06:56:36.698Z,376.00
2018-10-19T06:57:28.592Z,380.00
2018-10-19T06:58:28.578Z,388.00
2018-10-19T06:59:28.644Z,396.00
2018-10-19T07:00:28.577Z,400.00
2018-10-19T07:01:28.558Z,404.00
2018-10-19T07:02:28.533Z,412.00
2018-10-19T07:03:28.524Z,416.00
2018-10-19T07:04:28.513Z,424.00
2018-10-19T07:05:28.544Z,424.00
2018-10-19T07:06:28.523Z,428.00
2018-10-19T07:07:28.492Z,432.00
2018-10-19T07:08:28.591Z,424.00
2018-10-19T07:09:28.461Z,428.00
2018-10-19T07:10:28.460Z,432.00
2018-10-19T07:11:28.437Z,436.00
2018-10-19T07:12:28.436Z,440.00
2018-10-19T07:13:28.464Z,448.00
2018-10-19T07:14:28.402Z,452.00
2018-10-19T07:15:28.385Z,464.00
2018-10-19T07:16:28.404Z,468.00
2018-10-19T07:17:28.398Z,468.00
2018-10-19T07:18:28.351Z,480.00
2018-10-19T07:19:28.353Z,488.00
2018-10-19T07:20:28.338Z,480.00
2018-10-19T07:21:28.367Z,484.00
2018-10-19T07:22:28.361Z,492.00
2018-10-19T07:23:28.333Z,484.00
2018-10-19T07:24:28.389Z,492.00
2018-10-19T07:25:28.307Z,500.00
2018-10-19T07:26:28.274Z,500.00
2018-10-19T07:27:28.263Z,508.00
2018-10-19T07:28:28.286Z,508.00
2018-10-19T07:29:28.284Z,500.00
2018-10-19T07:30:28.229Z,508.00
2018-10-19T07:31:28.291Z,512.00
2018-10-19T07:32:28.219Z,528.00
2018-10-19T07:33:28.220Z,520.00
2018-10-19T07:34:28.210Z,532.00
2018-10-19T07:35:28.185Z,544.00
2018-10-19T07:36:28.357Z,548.00
2018-10-19T07:37:28.153Z,560.00
2018-10-19T07:38:28.147Z,552.00
2018-10-19T07:39:28.128Z,568.00
2018-10-19T07:40:35.467Z,576.00
2018-10-19T07:41:28.122Z,568.00
2018-10-19T07:42:28.151Z,580.00
2018-10-19T07:43:28.079Z,588.00
2018-10-19T07:44:28.064Z,572.00
2018-10-19T07:45:28.052Z,572.00
2018-10-19T07:46:28.042Z,576.00
2018-10-19T07:47:28.158Z,588.00
2018-10-19T07:48:28.076Z,584.00
2018-10-19T07:49:28.028Z,596.00
2018-10-19T07:50:27.997Z,588.00
2018-10-19T07:51:27.985Z,580.00
2018-10-19T07:52:27.973Z,588.00
2018-10-19T07:53:27.966Z,604.00
2018-10-19T07:54:28.033Z,596.00
2018-10-19T07:55:27.944Z,604.00
2018-10-19T07:56:27.937Z,592.00
2018-10-19T07:57:27.920Z,604.00
2018-10-19T07:58:27.910Z,616.00
2018-10-19T07:59:27.912Z,616.00
2018-10-19T08:00:27.923Z,624.00
2018-10-19T08:01:27.875Z,620.00
2018-10-19T08:02:27.861Z,600.00
2018-10-19T08:03:27.865Z,604.00
2018-10-19T08:04:27.845Z,616.00
2018-10-19T08:05:27.856Z,608.00
2018-10-19T08:06:27.818Z,608.00
2018-10-19T08:07:27.816Z,608.00
2018-10-19T08:08:27.800Z,608.00
2018-10-19T08:09:27.798Z,612.00
2018-10-19T08:10:27.812Z,612.00
2018-10-19T08:11:27.794Z,612.00
2018-10-19T08:12:27.757Z,612.00
2018-10-19T08:13:27.741Z,612.00
2018-10-19T08:14:27.732Z,604.00
2018-10-19T08:15:27.743Z,608.00
2018-10-19T08:16:27.727Z,608.00
2018-10-19T08:17:27.701Z,612.00
2018-10-19T08:18:27.694Z,612.00
2018-10-19T08:19:27.676Z,608.00
2018-10-19T08:20:34.752Z,612.00
2018-10-19T08:21:27.674Z,612.00
2018-10-19T08:22:27.640Z,616.00
2018-10-19T08:23:27.628Z,616.00
2018-10-19T08:24:27.619Z,616.00
2018-10-19T08:25:27.609Z,620.00
2018-10-19T08:26:27.640Z,616.00
2018-10-19T08:27:27.615Z,620.00
2018-10-19T08:28:27.606Z,624.00
2018-10-19T08:29:27.564Z,624.00
2018-10-19T08:30:27.551Z,624.00
2018-10-19T08:31:27.543Z,628.00
2018-10-19T08:32:27.543Z,628.00
2018-10-19T08:33:27.519Z,632.00
2018-10-19T08:34:27.511Z,632.00
2018-10-19T08:35:27.498Z,632.00
2018-10-19T08:36:27.544Z,628.00
2018-10-19T08:37:27.551Z,628.00
2018-10-19T08:38:34.584Z,628.00
2018-10-19T08:39:27.495Z,620.00
2018-10-19T08:40:27.489Z,624.00
2018-10-19T08:41:27.528Z,628.00
2018-10-19T08:42:27.439Z,624.00
2018-10-19T08:43:27.408Z,628.00
2018-10-19T08:44:27.394Z,628.00
2018-10-19T08:45:27.389Z,628.00
2018-10-19T08:46:27.377Z,632.00
2018-10-19T08:47:27.386Z,628.00
2018-10-19T08:48:27.354Z,636.00
2018-10-19T08:49:27.338Z,632.00
2018-10-19T08:50:27.327Z,640.00
2018-10-19T08:51:27.455Z,640.00
2018-10-19T08:52:34.342Z,640.00
2018-10-19T08:53:27.333Z,644.00
2018-10-19T08:54:27.288Z,644.00
2018-10-19T08:55:27.315Z,640.00
2018-10-19T08:56:27.259Z,632.00
2018-10-19T08:57:27.249Z,628.00
2018-10-19T08:58:27.447Z,628.00
2018-10-19T08:59:27.263Z,628.00
2018-10-19T09:00:34.260Z,628.00
2018-10-19T09:01:27.209Z,632.00
2018-10-19T09:02:34.483Z,628.00
2018-10-19T09:03:27.236Z,628.00
2018-10-19T09:04:27.185Z,628.00
2018-10-19T09:05:27.172Z,628.00
2018-10-19T09:06:27.150Z,628.00
2018-10-19T09:07:27.143Z,628.00
2018-10-19T09:08:27.129Z,628.00
2018-10-19T09:09:27.121Z,632.00
2018-10-19T09:10:27.129Z,640.00
2018-10-19T09:11:27.154Z,644.00
2018-10-19T09:12:27.152Z,640.00
2018-10-19T09:13:27.091Z,644.00
2018-10-19T09:14:35.031Z,644.00
2018-10-19T09:15:27.997Z,632.00
2018-10-19T09:16:27.034Z,632.00
2018-10-19T09:17:27.026Z,632.00
2018-10-19T09:18:27.058Z,636.00
2018-10-19T09:19:27.007Z,632.00
2018-10-19T09:20:26.992Z,628.00
2018-10-19T09:21:27.049Z,632.00
2018-10-19T09:22:26.967Z,632.00
2018-10-19T09:23:27.013Z,632.00
2018-10-19T09:24:26.960Z,628.00
2018-10-19T09:25:27.030Z,628.00
2018-10-19T09:26:26.922Z,628.00
2018-10-19T09:27:26.920Z,628.00
2018-10-19T09:28:26.900Z,624.00
2018-10-19T09:29:26.921Z,620.00
2018-10-19T09:30:34.094Z,620.00
2018-10-19T09:31:26.871Z,620.00
2018-10-19T09:32:26.859Z,616.00
2018-10-19T09:33:26.848Z,616.00
2018-10-19T09:34:26.837Z,620.00
2018-10-19T09:35:26.866Z,616.00
2018-10-19T09:36:27.028Z,616.00
2018-10-19T09:37:26.801Z,616.00
2018-10-19T09:38:26.833Z,612.00
2018-10-19T09:39:26.777Z,608.00
2018-10-19T09:40:26.766Z,612.00
2018-10-19T09:41:26.880Z,612.00
2018-10-19T09:42:26.743Z,612.00
2018-10-19T09:43:26.751Z,612.00
2018-10-19T09:44:26.724Z,612.00
2018-10-19T09:45:26.708Z,612.00
2018-10-19T09:46:26.699Z,608.00
2018-10-19T09:47:33.772Z,612.00
2018-10-19T09:48:26.674Z,612.00
2018-10-19T09:49:26.698Z,612.00
2018-10-19T09:50:26.733Z,612.00
2018-10-19T09:51:33.694Z,612.00
2018-10-19T09:52:26.631Z,612.00
2018-10-19T09:53:26.627Z,616.00
2018-10-19T09:54:26.615Z,616.00
2018-10-19T09:55:26.626Z,620.00
2018-10-19T09:56:26.592Z,612.00
2018-10-19T09:57:26.574Z,628.00
2018-10-19T09:58:26.564Z,628.00
2018-10-19T09:59:26.558Z,632.00
2018-10-19T10:00:26.549Z,628.00
2018-10-19T10:01:26.544Z,624.00
2018-10-19T10:02:26.531Z,620.00
2018-10-19T10:03:26.512Z,624.00
2018-10-19T10:04:26.497Z,616.00
2018-10-19T10:05:26.497Z,620.00
2018-10-19T10:06:26.485Z,620.00
2018-10-19T10:07:26.462Z,620.00
2018-10-19T10:08:26.465Z,624.00
2018-10-19T10:09:26.445Z,624.00
2018-10-19T10:10:26.428Z,608.00
2018-10-19T10:11:26.465Z,612.00
2018-10-19T10:12:26.408Z,612.00
2018-10-19T10:13:26.395Z,612.00
2018-10-19T10:14:26.398Z,612.00
2018-10-19T10:15:26.502Z,612.00
2018-10-19T10:16:26.363Z,612.00
2018-10-19T10:17:26.358Z,616.00
2018-10-19T10:18:26.344Z,616.00
2018-10-19T10:19:26.327Z,616.00
2018-10-19T10:20:26.322Z,620.00
2018-10-19T10:21:26.314Z,624.00
2018-10-19T10:22:26.314Z,624.00
2018-10-19T10:23:26.285Z,624.00
2018-10-19T10:24:26.273Z,616.00
2018-10-19T10:25:26.265Z,612.00
2018-10-19T10:26:26.250Z,612.00
2018-10-19T10:27:26.259Z,620.00
2018-10-19T10:28:26.226Z,616.00
2018-10-19T10:29:26.218Z,616.00
2018-10-19T10:30:26.207Z,612.00
2018-10-19T10:31:26.198Z,612.00
2018-10-19T10:32:26.276Z,608.00
2018-10-19T10:33:26.182Z,616.00
2018-10-19T10:34:26.165Z,612.00
2018-10-19T10:35:26.149Z,620.00
2018-10-19T10:36:26.139Z,624.00
2018-10-19T10:37:26.135Z,624.00
2018-10-19T10:38:26.128Z,624.00
2018-10-19T10:39:26.112Z,632.00
2018-10-19T10:40:26.093Z,640.00
2018-10-19T10:41:26.084Z,632.00
2018-10-19T10:42:26.084Z,632.00
2018-10-19T10:43:26.097Z,636.00
2018-10-19T10:44:34.398Z,640.00
2018-10-19T10:45:26.038Z,636.00
2018-10-19T10:46:26.043Z,640.00
2018-10-19T10:47:26.018Z,644.00
2018-10-19T10:48:26.029Z,640.00
2018-10-19T10:49:25.995Z,648.00
2018-10-19T10:50:26.040Z,656.00
2018-10-19T10:51:25.969Z,660.00
2018-10-19T10:52:25.961Z,668.00
2018-10-19T10:53:26.018Z,664.00
2018-10-19T10:54:25.940Z,668.00
2018-10-19T10:55:25.925Z,668.00
2018-10-19T10:56:25.915Z,672.00
2018-10-19T10:57:25.908Z,656.00
2018-10-19T10:58:25.913Z,656.00
2018-10-19T10:59:25.896Z,656.00
2018-10-19T11:00:25.868Z,664.00
2018-10-19T11:01:25.860Z,660.00
2018-10-19T11:02:25.849Z,652.00
2018-10-19T11:03:25.835Z,656.00
2018-10-19T11:04:25.844Z,660.00
2018-10-19T11:05:25.819Z,660.00
2018-10-19T11:06:25.805Z,668.00
2018-10-19T11:07:25.868Z,672.00
2018-10-19T11:08:25.783Z,676.00
2018-10-19T11:09:25.769Z,668.00
2018-10-19T11:10:25.763Z,668.00
2018-10-19T11:11:25.747Z,676.00
2018-10-19T11:12:25.739Z,672.00
2018-10-19T11:13:25.726Z,672.00
2018-10-19T11:14:25.743Z,684.00
2018-10-19T11:15:25.730Z,688.00
2018-10-19T11:16:25.696Z,692.00
2018-10-19T11:17:25.744Z,692.00
2018-10-19T11:18:25.686Z,692.00
2018-10-19T11:19:25.705Z,696.00
2018-10-19T11:20:25.645Z,704.00
2018-10-19T11:21:25.638Z,708.00
2018-10-19T11:22:25.708Z,692.00
2018-10-19T11:23:25.613Z,688.00
2018-10-19T11:24:25.605Z,688.00
2018-10-19T11:25:25.591Z,692.00
2018-10-19T11:26:25.586Z,688.00
2018-10-19T11:27:25.568Z,692.00
2018-10-19T11:28:25.585Z,692.00
2018-10-19T11:29:25.545Z,688.00
2018-10-19T11:30:25.572Z,680.00
2018-10-19T11:31:25.543Z,684.00
2018-10-19T11:32:25.514Z,684.00
2018-10-19T11:33:25.509Z,692.00
2018-10-19T11:34:25.568Z,688.00
2018-10-19T11:35:25.480Z,680.00
2018-10-19T11:36:25.532Z,708.00
2018-10-19T11:37:25.552Z,692.00
2018-10-19T11:38:25.463Z,672.00
2018-10-19T11:39:25.541Z,692.00
2018-10-19T11:40:25.446Z,700.00
2018-10-19T11:41:25.415Z,692.00
2018-10-19T11:42:25.403Z,700.00
2018-10-19T11:43:25.391Z,692.00
2018-10-19T11:44:25.386Z,684.00
2018-10-19T11:45:25.532Z,680.00
2018-10-19T11:46:25.356Z,676.00
2018-10-19T11:47:25.343Z,664.00
2018-10-19T11:48:25.559Z,672.00
2018-10-19T11:49:25.340Z,668.00
2018-10-19T11:50:25.321Z,664.00
2018-10-19T11:51:25.318Z,668.00
2018-10-19T11:52:25.288Z,664.00
2018-10-19T11:53:25.276Z,676.00
2018-10-19T11:54:25.269Z,660.00
2018-10-19T11:55:25.264Z,656.00
2018-10-19T11:56:25.310Z,656.00
2018-10-19T11:57:25.232Z,668.00
2018-10-19T11:58:25.286Z,668.00
2018-10-19T11:59:25.210Z,680.00
2018-10-19T12:00:25.212Z,676.00
2018-10-19T12:01:25.227Z,684.00
2018-10-19T12:02:25.178Z,676.00
2018-10-19T12:03:25.218Z,684.00
2018-10-19T12:04:25.154Z,688.00
2018-10-19T12:05:25.145Z,668.00
2018-10-19T12:06:25.138Z,668.00
2018-10-19T12:07:25.165Z,668.00
2018-10-19T12:08:25.135Z,668.00
2018-10-19T12:09:25.102Z,668.00
2018-10-19T12:10:25.089Z,692.00
2018-10-19T12:11:25.086Z,660.00
2018-10-19T12:12:25.071Z,688.00
2018-10-19T12:13:25.090Z,680.00
2018-10-19T12:14:25.043Z,656.00
2018-10-19T12:15:25.034Z,660.00
2018-10-19T12:16:25.478Z,672.00
2018-10-19T12:17:25.023Z,668.00
2018-10-19T12:18:25.000Z,672.00
2018-10-19T12:19:25.091Z,680.00
2018-10-19T12:20:25.009Z,688.00
2018-10-19T12:21:25.032Z,704.00
2018-10-19T12:22:25.000Z,748.00
2018-10-19T12:23:24.945Z,688.00
2018-10-19T12:24:24.957Z,692.00
2018-10-19T12:25:24.928Z,700.00
2018-10-19T12:26:24.910Z,708.00
2018-10-19T12:27:25.022Z,704.00
2018-10-19T12:28:24.889Z,700.00
2018-10-19T12:29:24.923Z,688.00
2018-10-19T12:30:24.863Z,696.00
2018-10-19T12:31:24.869Z,696.00
2018-10-19T12:32:24.905Z,696.00
2018-10-19T12:33:24.863Z,696.00
2018-10-19T12:34:24.838Z,688.00
2018-10-19T12:35:24.862Z,696.00
2018-10-19T12:36:24.807Z,700.00
2018-10-19T12:37:24.791Z,712.00
2018-10-19T12:38:24.781Z,704.00
2018-10-19T12:39:24.895Z,696.00
2018-10-19T12:40:24.756Z,700.00
2018-10-19T12:41:24.746Z,696.00
2018-10-19T12:42:24.790Z,700.00
2018-10-19T12:43:24.723Z,692.00
2018-10-19T12:44:24.708Z,684.00
2018-10-19T12:45:24.699Z,684.00
2018-10-19T12:46:24.685Z,668.00
2018-10-19T12:47:24.783Z,680.00
2018-10-19T12:48:24.767Z,676.00
2018-10-19T12:49:24.666Z,676.00